Time;durP1;ratioP1;P1;durP2;ratioP2;P2;SDS_P1;SDS_P2;PMS_P1;PMS_P2;Temp;Humidity;BMP_temperature;BMP_pressure;BME280_temperature;BME280_humidity;BME280_pressure;Samples;Min_cycle;Max_cycle;Signal;HPM_P1;HPM_P2
2023/05/25 00:01:36;;;;;;;36.55;9.88;;;11.10;99.90;;;;;;5051634;28;20044;-74
2023/05/25 00:04:02;;;;;;;25.92;10.07;;;11.10;99.90;;;;;;5051859;28;20103;-74
2023/05/25 00:06:29;;;;;;;24.65;9.68;;;11.10;99.90;;;;;;5051969;28;20052;-74
2023/05/25 00:08:56;;;;;;;29.27;9.60;;;11.10;99.90;;;;;;5051941;28;20039;-73
2023/05/25 00:11:22;;;;;;;26.65;9.77;;;11.10;99.90;;;;;;5051132;28;20089;-73
2023/05/25 00:13:49;;;;;;;23.80;9.25;;;11.10;99.90;;;;;;5050933;28;20024;-72
2023/05/25 00:16:14;;;;;;;33.97;9.77;;;11.10;99.90;;;;;;5053270;28;20040;-73
2023/05/25 00:18:40;;;;;;;17.42;9.00;;;11.10;99.90;;;;;;5051980;28;20033;-73
2023/05/25 00:21:06;;;;;;;34.20;10.30;;;11.10;99.90;;;;;;5049537;28;20044;-73
2023/05/25 00:23:34;;;;;;;28.02;9.50;;;11.10;99.90;;;;;;5053541;28;20021;-74
2023/05/25 00:26:02;;;;;;;34.75;9.52;;;11.10;99.90;;;;;;5050551;28;20090;-73
2023/05/25 00:28:28;;;;;;;24.48;8.95;;;11.10;99.90;;;;;;5052158;28;20069;-74
2023/05/25 00:30:54;;;;;;;23.25;9.40;;;11.10;99.90;;;;;;5052262;28;20036;-73
2023/05/25 00:33:20;;;;;;;31.58;8.95;;;11.10;99.90;;;;;;5050762;28;20053;-73
2023/05/25 00:35:46;;;;;;;26.02;8.93;;;11.10;99.90;;;;;;5051131;28;20076;-73
2023/05/25 00:38:16;;;;;;;25.30;9.52;;;11.10;99.90;;;;;;5053018;28;20029;-73
2023/05/25 00:40:42;;;;;;;23.77;9.27;;;11.00;99.90;;;;;;5056531;28;20025;-73
2023/05/25 00:43:08;;;;;;;22.35;9.50;;;11.00;99.90;;;;;;5049970;28;20033;-73
2023/05/25 00:45:34;;;;;;;23.08;8.55;;;10.90;99.90;;;;;;5051594;28;20081;-73
2023/05/25 00:48:00;;;;;;;25.98;8.48;;;10.80;99.90;;;;;;5051550;28;20488;-74
2023/05/25 00:50:35;;;;;;;26.60;9.05;;;10.80;99.90;;;;;;5051256;28;20755;-73
2023/05/25 00:53:00;;;;;;;21.45;8.73;;;10.70;99.90;;;;;;5051703;28;20029;-74
2023/05/25 00:55:28;;;;;;;21.42;9.57;;;10.60;99.90;;;;;;5052522;28;20040;-74
2023/05/25 00:57:56;;;;;;;29.45;9.32;;;10.60;99.90;;;;;;5051782;28;20065;-73
2023/05/25 01:00:22;;;;;;;22.20;9.30;;;10.50;99.90;;;;;;5054453;28;20549;-73
2023/05/25 01:02:51;;;;;;;20.25;8.85;;;10.50;99.90;;;;;;5054635;28;20470;-73
2023/05/25 01:05:20;;;;;;;28.70;10.40;;;10.50;99.90;;;;;;5057843;28;20033;-73
2023/05/25 01:07:46;;;;;;;27.58;10.05;;;10.40;99.90;;;;;;5054695;28;20051;-74
2023/05/25 01:10:14;;;;;;;25.40;11.43;;;10.40;99.90;;;;;;5055144;28;20025;-73
2023/05/25 01:12:43;;;;;;;26.75;10.73;;;10.40;99.90;;;;;;5053936;28;20022;-73
2023/05/25 01:15:09;;;;;;;31.23;10.95;;;10.40;99.90;;;;;;5053696;28;20115;-74
2023/05/25 01:17:37;;;;;;;22.85;10.25;;;10.40;99.90;;;;;;5054550;28;20106;-73
2023/05/25 01:20:06;;;;;;;28.55;10.48;;;10.40;99.90;;;;;;5055580;28;20031;-73
2023/05/25 01:22:37;;;;;;;25.42;10.32;;;10.30;99.90;;;;;;5053244;28;20021;-73
2023/05/25 01:25:08;;;;;;;23.33;11.00;;;10.10;99.90;;;;;;5056090;28;20041;-74
2023/05/25 01:27:44;;;;;;;29.70;10.98;;;10.10;99.90;;;;;;5053533;28;20059;-73
2023/05/25 01:30:14;;;;;;;27.20;10.98;;;10.00;99.90;;;;;;5055599;28;20063;-73
2023/05/25 01:32:42;;;;;;;28.05;11.02;;;10.00;99.90;;;;;;5053751;28;20025;-73
2023/05/25 01:35:08;;;;;;;27.38;10.35;;;9.90;99.90;;;;;;5053949;28;20036;-73
2023/05/25 01:37:36;;;;;;;28.60;10.82;;;9.90;99.90;;;;;;5053681;28;20037;-74
2023/05/25 01:40:04;;;;;;;30.60;11.32;;;9.90;99.90;;;;;;5054102;28;20113;-74
2023/05/25 01:42:30;;;;;;;35.05;12.05;;;9.90;99.90;;;;;;5055706;28;20017;-74
2023/05/25 01:44:56;;;;;;;27.38;10.38;;;9.90;99.90;;;;;;5054294;28;20532;-74
2023/05/25 01:47:31;;;;;;;26.17;10.55;;;9.90;99.90;;;;;;5055124;28;20100;-73
2023/05/25 01:50:15;;;;;;;29.30;11.32;;;9.90;99.90;;;;;;5053914;28;20045;-73
2023/05/25 01:52:52;;;;;;;30.58;11.73;;;9.90;99.90;;;;;;5054861;28;20470;-74
2023/05/25 01:55:20;;;;;;;31.75;11.57;;;9.80;99.90;;;;;;5052941;28;20034;-73
2023/05/25 01:57:49;;;;;;;31.45;11.57;;;9.80;99.90;;;;;;5052103;28;20100;-73
2023/05/25 02:00:18;;;;;;;28.23;11.50;;;9.80;99.90;;;;;;5052021;28;20021;-73
2023/05/25 02:02:46;;;;;;;28.70;11.20;;;9.70;99.90;;;;;;5054273;28;20029;-73
2023/05/25 02:05:12;;;;;;;29.23;11.25;;;9.70;99.90;;;;;;5054865;28;20028;-73
2023/05/25 02:07:38;;;;;;;32.03;10.75;;;9.70;99.90;;;;;;5053872;28;20022;-73
2023/05/25 02:10:04;;;;;;;30.45;11.23;;;9.60;99.90;;;;;;5053289;28;20024;-74
2023/05/25 02:12:30;;;;;;;25.38;11.05;;;9.60;99.90;;;;;;5053445;28;20081;-74
2023/05/25 02:14:55;;;;;;;25.65;11.45;;;9.60;99.90;;;;;;5055671;28;20097;-72
2023/05/25 02:17:26;;;;;;;30.88;11.55;;;9.60;99.90;;;;;;5054372;28;20095;-74
2023/05/25 02:19:53;;;;;;;29.13;11.32;;;9.50;99.90;;;;;;5051377;28;20021;-73
2023/05/25 02:22:20;;;;;;;25.42;11.10;;;9.50;99.90;;;;;;5054555;28;20025;-73
2023/05/25 02:24:45;;;;;;;27.85;11.05;;;9.50;99.90;;;;;;5054377;28;20037;-73
2023/05/25 02:27:11;;;;;;;28.98;11.18;;;9.40;99.90;;;;;;5053183;28;20029;-73
2023/05/25 02:29:37;;;;;;;35.15;12.70;;;9.40;99.90;;;;;;5055525;28;20429;-73
2023/05/25 02:32:03;;;;;;;30.08;12.43;;;9.40;99.90;;;;;;5052289;28;20029;-73
2023/05/25 02:34:29;;;;;;;29.90;12.40;;;9.40;99.90;;;;;;5054798;28;20033;-74
2023/05/25 02:36:54;;;;;;;28.05;11.05;;;9.40;99.90;;;;;;5055527;28;20036;-74
2023/05/25 02:39:20;;;;;;;26.30;11.45;;;9.30;99.90;;;;;;5053508;28;20025;-74
2023/05/25 02:41:45;;;;;;;27.35;11.63;;;9.30;99.90;;;;;;5050708;28;20029;-74
2023/05/25 02:44:11;;;;;;;25.38;11.50;;;9.30;99.90;;;;;;5054969;28;20025;-73
2023/05/25 02:46:37;;;;;;;22.77;11.45;;;9.30;99.90;;;;;;5052890;28;20034;-73
2023/05/25 02:49:02;;;;;;;26.08;11.15;;;9.20;99.90;;;;;;5053089;28;20590;-74
2023/05/25 02:51:28;;;;;;;29.63;12.15;;;9.20;99.90;;;;;;5046270;28;20061;-75
2023/05/25 02:53:54;;;;;;;27.63;11.63;;;9.20;99.90;;;;;;5052600;28;20052;-73
2023/05/25 02:56:21;;;;;;;26.92;11.88;;;9.10;99.90;;;;;;5053842;28;20027;-73
2023/05/25 02:58:47;;;;;;;31.00;12.32;;;9.10;99.90;;;;;;5051710;28;20045;-73
2023/05/25 03:01:17;;;;;;;34.33;12.18;;;9.10;99.90;;;;;;5054084;28;20021;-74
2023/05/25 03:03:50;;;;;;;28.70;12.13;;;9.10;99.90;;;;;;5053644;28;20021;-74
2023/05/25 03:06:16;;;;;;;25.15;11.63;;;9.10;99.90;;;;;;5052988;28;20068;-74
2023/05/25 03:08:42;;;;;;;24.33;11.73;;;9.20;99.90;;;;;;5052844;28;20033;-73
2023/05/25 03:11:07;;;;;;;30.00;12.20;;;9.20;99.90;;;;;;5055622;28;20175;-74
2023/05/25 03:13:34;;;;;;;23.27;11.70;;;9.20;99.90;;;;;;5053901;28;20532;-74
2023/05/25 03:16:00;;;;;;;37.10;12.63;;;9.30;99.90;;;;;;5051601;28;20066;-75
2023/05/25 03:18:26;;;;;;;35.58;12.55;;;9.30;99.90;;;;;;5054545;28;20041;-75
2023/05/25 03:20:51;;;;;;;31.88;13.93;;;9.30;99.90;;;;;;5052404;28;20036;-74
2023/05/25 03:23:17;;;;;;;32.47;12.98;;;9.30;99.90;;;;;;5050480;28;20026;-74
2023/05/25 03:25:43;;;;;;;31.58;12.10;;;9.30;99.90;;;;;;5053517;28;20017;-74
2023/05/25 03:28:09;;;;;;;30.33;12.75;;;9.30;99.90;;;;;;5051837;28;20049;-74
2023/05/25 03:30:34;;;;;;;29.08;12.38;;;9.30;99.90;;;;;;5052980;28;20021;-75
2023/05/25 03:33:00;;;;;;;30.80;12.75;;;9.30;99.90;;;;;;5051843;28;20390;-74
2023/05/25 03:35:26;;;;;;;29.98;13.32;;;9.30;99.90;;;;;;5051198;28;20717;-74
2023/05/25 03:37:51;;;;;;;32.72;13.23;;;9.30;99.90;;;;;;5052666;28;20061;-74
2023/05/25 03:40:17;;;;;;;29.83;12.38;;;9.30;99.90;;;;;;5051972;28;20029;-74
2023/05/25 03:42:42;;;;;;;29.30;13.43;;;9.40;99.90;;;;;;5051562;28;20033;-74
2023/05/25 03:45:08;;;;;;;25.65;12.35;;;9.40;99.90;;;;;;5051653;28;20021;-74
2023/05/25 03:47:35;;;;;;;31.88;13.27;;;9.40;99.90;;;;;;5051309;28;20056;-74
2023/05/25 03:50:02;;;;;;;33.25;14.45;;;9.40;99.90;;;;;;5052225;28;20045;-74
2023/05/25 03:52:27;;;;;;;31.58;13.93;;;9.50;99.90;;;;;;5053870;28;20028;-74
2023/05/25 03:54:53;;;;;;;32.58;14.23;;;9.50;99.90;;;;;;5051563;28;20018;-74
2023/05/25 03:57:18;;;;;;;33.85;14.02;;;9.60;99.90;;;;;;5052554;28;20041;-74
2023/05/25 03:59:44;;;;;;;36.05;14.52;;;9.60;99.90;;;;;;5055073;28;20079;-75
2023/05/25 04:02:10;;;;;;;29.42;14.82;;;9.60;99.90;;;;;;5048192;28;20048;-74
2023/05/25 04:04:37;;;;;;;28.52;14.43;;;9.70;99.90;;;;;;5043831;28;20029;-74
2023/05/25 04:07:02;;;;;;;31.20;15.27;;;9.70;99.90;;;;;;5042880;28;20505;-74
2023/05/25 04:09:28;;;;;;;39.33;16.15;;;9.70;99.90;;;;;;5044285;28;20033;-74
2023/05/25 04:11:54;;;;;;;34.72;14.38;;;9.70;99.90;;;;;;5043211;28;20035;-73
2023/05/25 04:14:20;;;;;;;37.70;15.13;;;9.70;99.90;;;;;;5044453;28;20506;-73
2023/05/25 04:16:45;;;;;;;39.95;16.42;;;9.70;99.90;;;;;;5054111;28;20025;-73
2023/05/25 04:19:17;;;;;;;34.47;15.73;;;9.80;99.90;;;;;;5049967;28;20048;-73
2023/05/25 04:21:43;;;;;;;41.65;15.68;;;9.80;99.90;;;;;;5049403;28;20060;-72
2023/05/25 04:24:08;;;;;;;37.78;16.17;;;9.80;99.90;;;;;;5043465;28;20029;-73
2023/05/25 04:26:34;;;;;;;46.55;16.35;;;9.80;99.90;;;;;;5043428;28;20022;-73
2023/05/25 04:29:01;;;;;;;36.13;15.75;;;9.80;99.90;;;;;;5043487;28;20032;-73
2023/05/25 04:31:27;;;;;;;37.17;15.32;;;9.90;99.90;;;;;;5043299;28;20029;-72
2023/05/25 04:33:54;;;;;;;47.47;17.02;;;9.90;99.90;;;;;;5045177;28;20112;-72
2023/05/25 04:36:21;;;;;;;39.85;17.23;;;9.90;99.90;;;;;;5047430;28;20018;-74
2023/05/25 04:38:47;;;;;;;40.50;15.43;;;10.00;99.90;;;;;;5046871;28;20057;-74
2023/05/25 04:41:13;;;;;;;38.90;16.40;;;10.00;99.90;;;;;;5047353;28;20116;-72
2023/05/25 04:43:39;;;;;;;38.58;15.68;;;10.00;99.90;;;;;;5045762;28;20033;-73
2023/05/25 04:46:06;;;;;;;38.38;15.60;;;10.00;99.90;;;;;;5045227;28;20029;-72
2023/05/25 04:48:33;;;;;;;31.90;14.60;;;10.10;99.90;;;;;;5047178;28;20032;-73
2023/05/25 04:51:03;;;;;;;34.40;14.93;;;10.10;99.90;;;;;;5046810;28;20042;-73
2023/05/25 04:53:29;;;;;;;35.20;14.60;;;10.10;99.90;;;;;;5046218;28;20025;-73
2023/05/25 04:55:54;;;;;;;39.63;15.05;;;10.20;99.90;;;;;;5046621;28;20085;-73
2023/05/25 04:58:21;;;;;;;32.58;14.75;;;10.20;99.90;;;;;;5045992;28;20132;-73
2023/05/25 05:00:47;;;;;;;29.05;12.85;;;10.30;99.90;;;;;;5046031;28;20033;-73
2023/05/25 05:03:12;;;;;;;31.45;13.30;;;10.30;99.90;;;;;;5046792;28;20109;-72
2023/05/25 05:05:38;;;;;;;33.38;13.07;;;10.40;99.90;;;;;;5046557;28;20030;-73
2023/05/25 05:08:04;;;;;;;27.35;12.60;;;10.40;99.90;;;;;;5045053;28;20026;-73
2023/05/25 05:10:30;;;;;;;33.30;12.52;;;10.40;99.90;;;;;;5046482;28;20032;-74
2023/05/25 05:12:55;;;;;;;33.60;11.70;;;10.50;99.90;;;;;;5046202;28;20033;-72
2023/05/25 05:15:21;;;;;;;25.38;10.88;;;10.50;99.90;;;;;;5045515;28;20080;-72
2023/05/25 05:17:46;;;;;;;26.63;10.98;;;10.60;99.90;;;;;;5046496;28;20049;-73
2023/05/25 05:20:12;;;;;;;23.40;10.48;;;10.70;99.90;;;;;;5044541;28;20036;-71
2023/05/25 05:22:38;;;;;;;32.58;10.43;;;10.70;99.90;;;;;;5046330;28;20021;-71
2023/05/25 05:25:04;;;;;;;19.73;9.48;;;10.70;99.90;;;;;;5046360;28;20025;-73
2023/05/25 05:27:29;;;;;;;23.25;10.10;;;10.80;99.90;;;;;;5045905;28;20048;-72
2023/05/25 05:29:55;;;;;;;22.75;9.95;;;10.90;99.90;;;;;;5046322;28;20053;-72
2023/05/25 05:32:21;;;;;;;23.48;9.40;;;10.90;99.90;;;;;;5045957;28;20056;-72
2023/05/25 05:34:46;;;;;;;27.55;9.98;;;11.00;99.90;;;;;;5045942;28;20025;-72
2023/05/25 05:37:12;;;;;;;24.20;9.68;;;11.00;99.90;;;;;;5046182;28;20033;-72
2023/05/25 05:39:37;;;;;;;22.50;8.40;;;11.00;99.90;;;;;;5045754;28;20030;-73
2023/05/25 05:42:03;;;;;;;23.05;8.45;;;11.10;99.90;;;;;;5045357;28;20033;-74
2023/05/25 05:44:29;;;;;;;21.02;7.82;;;11.10;99.90;;;;;;5049079;28;20032;-73
2023/05/25 05:46:59;;;;;;;25.10;9.52;;;11.20;99.90;;;;;;5061899;28;20072;-72
2023/05/25 05:49:28;;;;;;;18.90;7.75;;;11.20;99.90;;;;;;5058323;28;20068;-71
2023/05/25 05:51:54;;;;;;;19.30;7.22;;;11.30;99.90;;;;;;5054708;28;20083;-71
2023/05/25 05:54:20;;;;;;;18.90;7.50;;;11.30;99.90;;;;;;5055947;28;20044;-72
2023/05/25 05:56:45;;;;;;;23.80;8.02;;;11.40;99.90;;;;;;5046602;28;20087;-72
2023/05/25 05:59:11;;;;;;;21.25;7.30;;;11.40;99.90;;;;;;5044769;28;20034;-73
2023/05/25 06:01:37;;;;;;;23.13;6.75;;;11.40;99.90;;;;;;5044624;28;20487;-72
2023/05/25 06:04:04;;;;;;;21.83;7.00;;;11.50;99.90;;;;;;5061770;28;20036;-72
2023/05/25 06:06:32;;;;;;;25.70;7.72;;;11.50;99.90;;;;;;5064776;28;20032;-72
2023/05/25 06:08:59;;;;;;;23.10;7.43;;;11.50;99.90;;;;;;5065474;28;20033;-73
2023/05/25 06:11:25;;;;;;;25.38;6.82;;;11.60;99.90;;;;;;5065110;28;20057;-73
2023/05/25 06:13:50;;;;;;;19.77;7.03;;;11.60;99.90;;;;;;5064908;28;20036;-71
2023/05/25 06:16:16;;;;;;;18.98;6.88;;;11.70;99.90;;;;;;5065240;28;20897;-72
2023/05/25 06:18:42;;;;;;;23.90;6.43;;;11.80;99.90;;;;;;5064282;28;20178;-71
2023/05/25 06:21:07;;;;;;;20.83;6.68;;;11.80;99.90;;;;;;5065109;28;20467;-72
2023/05/25 06:23:33;;;;;;;17.80;6.13;;;11.90;99.90;;;;;;5064082;28;20033;-72
2023/05/25 06:26:03;;;;;;;21.35;6.72;;;12.00;99.90;;;;;;5065430;28;20040;-73
2023/05/25 06:28:29;;;;;;;17.95;6.18;;;12.10;99.90;;;;;;5065493;28;20033;-72
2023/05/25 06:30:55;;;;;;;20.27;6.22;;;12.10;99.90;;;;;;5065273;28;20028;-73
2023/05/25 06:33:21;;;;;;;23.85;5.78;;;12.10;99.90;;;;;;5063189;28;20096;-71
2023/05/25 06:35:46;;;;;;;24.80;5.97;;;12.20;99.90;;;;;;5065245;28;20382;-72
2023/05/25 06:38:12;;;;;;;21.88;5.57;;;12.20;99.90;;;;;;5064780;28;20033;-72
2023/05/25 06:40:37;;;;;;;19.08;5.65;;;12.30;99.90;;;;;;5064275;28;20112;-71
2023/05/25 06:43:03;;;;;;;18.30;6.47;;;12.40;99.90;;;;;;5064663;28;20025;-73
2023/05/25 06:45:28;;;;;;;19.52;5.68;;;12.50;99.90;;;;;;5057687;28;20040;-72
2023/05/25 06:47:54;;;;;;;20.05;5.85;;;12.50;99.90;;;;;;5051305;28;20078;-72
2023/05/25 06:50:20;;;;;;;20.02;5.57;;;12.50;99.90;;;;;;5055875;28;20457;-72
2023/05/25 06:52:46;;;;;;;26.40;6.30;;;12.50;99.90;;;;;;5050715;28;20037;-72
2023/05/25 06:55:11;;;;;;;23.17;5.82;;;12.60;99.90;;;;;;5044646;28;20026;-72
2023/05/25 06:57:37;;;;;;;21.67;5.53;;;12.70;99.90;;;;;;5044031;28;20045;-73
2023/05/25 07:00:10;;;;;;;24.42;5.75;;;12.80;99.90;;;;;;5058532;28;20029;-73
2023/05/25 07:02:36;;;;;;;26.52;5.90;;;12.90;99.90;;;;;;5055257;28;20127;-71
2023/05/25 07:05:04;;;;;;;21.73;6.05;;;12.90;99.90;;;;;;5062241;28;20079;-73
2023/05/25 07:07:30;;;;;;;19.05;6.18;;;12.90;99.90;;;;;;5047834;28;20064;-70
2023/05/25 07:09:56;;;;;;;18.92;5.13;;;12.90;99.90;;;;;;5043775;28;20086;-71
2023/05/25 07:12:22;;;;;;;22.33;6.05;;;13.00;99.90;;;;;;5044489;28;20030;-70
2023/05/25 07:14:47;;;;;;;22.65;5.93;;;13.00;99.90;;;;;;5048548;28;20026;-68
2023/05/25 07:17:14;;;;;;;29.25;5.85;;;13.00;99.90;;;;;;5041889;28;20043;-70
2023/05/25 07:19:42;;;;;;;24.52;5.68;;;13.00;99.90;;;;;;5042631;28;20030;-71
2023/05/25 07:22:09;;;;;;;17.42;5.82;;;13.00;99.90;;;;;;5049204;28;20047;-72
2023/05/25 07:24:35;;;;;;;26.88;5.63;;;13.10;99.90;;;;;;5063944;28;20045;-71
2023/05/25 07:27:01;;;;;;;18.33;5.50;;;13.10;99.90;;;;;;5064053;28;20032;-73
2023/05/25 07:29:27;;;;;;;23.83;6.32;;;13.10;99.90;;;;;;5062575;28;20100;-72
2023/05/25 07:31:52;;;;;;;25.73;6.25;;;13.20;99.90;;;;;;5063703;28;20036;-71
2023/05/25 07:34:19;;;;;;;24.65;6.50;;;13.10;99.90;;;;;;5062722;28;20095;-70
2023/05/25 07:36:44;;;;;;;26.55;6.38;;;13.20;99.90;;;;;;5063643;28;20453;-69
2023/05/25 07:39:10;;;;;;;25.15;7.10;;;13.10;99.90;;;;;;5051336;28;20045;-68
2023/05/25 07:41:36;;;;;;;18.92;5.75;;;13.10;99.90;;;;;;5048651;28;20839;-71
2023/05/25 07:44:02;;;;;;;22.45;6.55;;;13.10;99.90;;;;;;5045035;28;20028;-70
2023/05/25 07:46:28;;;;;;;27.52;6.35;;;13.10;99.90;;;;;;5063677;28;20029;-72
2023/05/25 07:48:55;;;;;;;22.90;5.35;;;13.20;99.90;;;;;;5063914;28;20057;-71
2023/05/25 07:51:25;;;;;;;25.73;6.10;;;13.30;99.90;;;;;;5048690;28;20041;-72
2023/05/25 07:53:52;;;;;;;25.13;6.45;;;13.50;99.90;;;;;;5054159;28;20037;-71
2023/05/25 07:56:18;;;;;;;29.70;6.15;;;13.70;99.90;;;;;;5047350;28;20057;-71
2023/05/25 07:58:44;;;;;;;26.10;6.32;;;13.80;99.90;;;;;;5041788;28;20069;-70
2023/05/25 08:01:09;;;;;;;34.33;6.65;;;13.80;99.90;;;;;;5043616;28;20056;-73
2023/05/25 08:03:35;;;;;;;28.23;6.57;;;13.80;99.90;;;;;;5043316;28;20108;-71
2023/05/25 08:06:03;;;;;;;32.67;6.40;;;13.80;99.90;;;;;;5043500;28;20490;-74
2023/05/25 08:08:28;;;;;;;25.85;5.63;;;13.80;99.90;;;;;;5045629;28;20129;-72
2023/05/25 08:10:54;;;;;;;25.00;6.25;;;13.80;99.90;;;;;;5047869;28;20029;-71
2023/05/25 08:13:20;;;;;;;24.10;5.88;;;13.70;99.90;;;;;;5054504;28;20048;-75
2023/05/25 08:15:45;;;;;;;27.98;5.85;;;13.70;99.90;;;;;;5050298;28;20071;-69
2023/05/25 08:18:11;;;;;;;30.33;6.88;;;13.60;99.90;;;;;;5053574;28;20049;-70
2023/05/25 08:20:36;;;;;;;29.67;6.28;;;13.60;99.90;;;;;;5060676;28;20017;-75
2023/05/25 08:23:03;;;;;;;28.67;6.25;;;13.70;99.90;;;;;;5063871;28;20123;-73
2023/05/25 08:25:29;;;;;;;33.22;6.97;;;13.60;99.90;;;;;;5050019;28;20085;-73
2023/05/25 08:27:55;;;;;;;30.60;6.90;;;13.70;99.90;;;;;;5059514;28;20017;-73
2023/05/25 08:30:21;;;;;;;31.73;6.28;;;13.90;99.90;;;;;;5055653;28;20036;-72
2023/05/25 08:32:46;;;;;;;24.63;6.32;;;14.00;99.90;;;;;;5049466;28;20037;-71
2023/05/25 08:35:12;;;;;;;31.75;6.40;;;14.10;99.90;;;;;;5048096;28;20037;-72
2023/05/25 08:37:38;;;;;;;33.70;6.57;;;14.10;99.90;;;;;;5056171;28;20385;-72
2023/05/25 08:40:06;;;;;;;29.35;6.53;;;14.10;99.90;;;;;;5056240;28;20045;-72
2023/05/25 08:42:32;;;;;;;28.15;6.78;;;14.20;99.90;;;;;;5045798;28;20038;-73
2023/05/25 08:44:58;;;;;;;29.20;6.47;;;14.20;99.90;;;;;;5047356;28;20067;-72
2023/05/25 08:47:28;;;;;;;36.78;7.38;;;14.30;99.90;;;;;;5047297;28;20065;-71
2023/05/25 08:49:55;;;;;;;30.75;6.55;;;14.30;99.90;;;;;;5047411;28;20080;-71
2023/05/25 08:52:22;;;;;;;29.05;6.00;;;14.30;99.90;;;;;;5051396;28;20036;-71
2023/05/25 08:54:52;;;;;;;26.05;6.38;;;14.40;99.90;;;;;;5048635;28;20033;-71
2023/05/25 08:57:25;;;;;;;33.72;6.18;;;14.40;99.90;;;;;;5064311;28;20049;-72
2023/05/25 09:00:09;;;;;;;36.85;6.45;;;14.40;99.90;;;;;;5058313;28;20068;-71
2023/05/25 09:02:58;;;;;;;36.05;6.57;;;14.50;99.90;;;;;;5067236;28;20025;-72
2023/05/25 09:05:24;;;;;;;29.17;6.72;;;14.60;99.90;;;;;;5067190;28;20037;-71
2023/05/25 09:07:53;;;;;;;46.72;7.30;;;14.60;99.90;;;;;;5065731;28;20552;-72
2023/05/25 09:10:19;;;;;;;34.92;7.22;;;14.60;99.90;;;;;;5066360;28;20033;-71
2023/05/25 09:12:46;;;;;;;28.73;6.00;;;14.50;99.90;;;;;;5063828;28;20021;-70
2023/05/25 09:15:12;;;;;;;26.00;5.65;;;14.40;99.90;;;;;;5058930;28;20029;-71
2023/05/25 09:17:39;;;;;;;29.30;5.90;;;14.50;99.90;;;;;;5050223;28;20052;-71
2023/05/25 09:20:07;;;;;;;28.42;6.63;;;14.70;99.90;;;;;;5047582;28;20029;-71
2023/05/25 09:22:34;;;;;;;35.85;6.10;;;14.80;99.90;;;;;;5049691;28;20482;-72
2023/05/25 09:25:04;;;;;;;26.77;6.35;;;14.80;99.90;;;;;;5052831;28;20041;-72
2023/05/25 09:27:34;;;;;;;30.95;6.53;;;14.80;99.90;;;;;;5053210;28;20025;-72
2023/05/25 09:30:03;;;;;;;29.70;6.63;;;14.80;99.90;;;;;;5046470;28;20033;-75
2023/05/25 09:32:29;;;;;;;32.78;6.50;;;14.80;99.90;;;;;;5046667;28;20056;-72
2023/05/25 09:34:56;;;;;;;27.00;6.25;;;14.90;99.90;;;;;;5050276;28;20397;-72
2023/05/25 09:37:22;;;;;;;33.47;6.93;;;14.90;99.90;;;;;;5066251;28;20033;-70
2023/05/25 09:39:50;;;;;;;34.30;6.18;;;14.90;99.90;;;;;;5060674;28;20021;-71
2023/05/25 09:42:16;;;;;;;31.27;6.60;;;14.90;99.90;;;;;;5062872;28;20029;-70
2023/05/25 09:44:42;;;;;;;28.20;6.43;;;14.80;99.90;;;;;;5061052;28;20072;-71
2023/05/25 09:47:08;;;;;;;26.48;5.90;;;15.00;99.90;;;;;;5050858;28;20052;-72
2023/05/25 09:49:34;;;;;;;35.47;6.28;;;15.20;99.90;;;;;;5047549;28;20040;-70
2023/05/25 09:52:01;;;;;;;43.97;6.85;;;15.30;99.90;;;;;;5046824;28;20029;-72
2023/05/25 09:54:26;;;;;;;34.38;7.32;;;15.40;99.90;;;;;;5049545;28;20030;-72
2023/05/25 09:56:53;;;;;;;35.65;6.97;;;15.40;99.90;;;;;;5058964;28;20060;-71
2023/05/25 09:59:20;;;;;;;28.00;6.10;;;15.30;99.90;;;;;;5056339;28;20103;-69
2023/05/25 10:01:51;;;;;;;32.95;6.95;;;15.40;99.90;;;;;;5048481;28;20881;-69
2023/05/25 10:04:16;;;;;;;40.90;7.72;;;15.70;99.90;;;;;;5049993;28;20084;-70
2023/05/25 10:06:44;;;;;;;33.47;6.70;;;15.90;99.90;;;;;;5055505;28;20068;-71
2023/05/25 10:09:13;;;;;;;32.85;6.72;;;16.10;99.90;;;;;;5052372;28;20044;-71
2023/05/25 10:11:42;;;;;;;32.83;6.97;;;16.20;99.90;;;;;;5050424;28;20067;-70
2023/05/25 10:14:08;;;;;;;36.15;6.88;;;16.10;99.90;;;;;;5065835;28;20029;-71
2023/05/25 10:16:38;;;;;;;39.42;6.78;;;16.10;99.90;;;;;;5063062;28;20097;-72
2023/05/25 10:19:11;;;;;;;33.33;6.30;;;16.20;99.90;;;;;;5064810;28;20097;-72
2023/05/25 10:21:38;;;;;;;35.80;7.53;;;16.10;99.90;;;;;;5064514;28;20025;-73
2023/05/25 10:24:08;;;;;;;36.40;7.07;;;16.00;99.90;;;;;;5065585;28;20025;-72
2023/05/25 10:26:38;;;;;;;34.70;7.00;;;16.00;99.90;;;;;;5055245;28;20026;-75
2023/05/25 10:29:06;;;;;;;37.08;7.35;;;16.00;99.90;;;;;;5044524;28;20056;-71
2023/05/25 10:31:36;;;;;;;40.92;7.68;;;16.20;99.90;;;;;;5044053;28;20025;-69
2023/05/25 10:34:02;;;;;;;30.98;6.40;;;16.40;99.90;;;;;;5044507;28;20032;-70
2023/05/25 10:36:29;;;;;;;34.85;7.22;;;16.80;99.90;;;;;;5045677;28;20022;-70
2023/05/25 10:38:55;;;;;;;32.92;7.65;;;16.70;99.90;;;;;;5044060;28;20034;-73
2023/05/25 10:41:21;;;;;;;30.73;6.85;;;16.70;99.90;;;;;;5045232;28;20081;-73
2023/05/25 10:43:48;;;;;;;42.45;7.00;;;16.80;99.90;;;;;;5044015;28;20060;-72
2023/05/25 10:46:15;;;;;;;35.05;6.22;;;16.80;99.90;;;;;;5043442;28;20454;-73
2023/05/25 10:48:47;;;;;;;27.00;6.25;;;16.90;99.90;;;;;;5045275;28;20060;-71
2023/05/25 10:51:13;;;;;;;33.72;7.22;;;16.90;99.90;;;;;;5045044;28;20068;-71
2023/05/25 10:53:44;;;;;;;33.60;7.25;;;16.70;99.90;;;;;;5044763;28;20022;-69
2023/05/25 10:56:14;;;;;;;33.45;7.18;;;16.40;99.90;;;;;;5045071;28;20073;-75
2023/05/25 10:58:45;;;;;;;40.72;7.72;;;16.40;99.90;;;;;;5044536;28;20029;-72
2023/05/25 11:01:13;;;;;;;27.33;6.13;;;16.30;99.90;;;;;;5044527;28;20026;-70
2023/05/25 11:03:57;;;;;;;29.05;6.82;;;16.20;99.90;;;;;;5043942;28;20032;-72
2023/05/25 11:06:45;;;;;;;27.15;6.10;;;16.30;99.90;;;;;;5045220;28;20441;-70
2023/05/25 11:09:30;;;;;;;35.55;7.38;;;16.50;99.90;;;;;;5043286;28;20044;-69
2023/05/25 11:11:57;;;;;;;41.08;7.75;;;16.70;99.90;;;;;;5043606;28;20209;-71
2023/05/25 11:14:31;;;;;;;30.95;7.38;;;16.80;99.90;;;;;;5044801;28;20029;-69
2023/05/25 11:17:13;;;;;;;33.40;7.28;;;16.70;99.90;;;;;;5045223;28;20108;-71
2023/05/25 11:19:42;;;;;;;43.75;7.07;;;16.50;99.90;;;;;;5042845;28;20037;-70
2023/05/25 11:22:17;;;;;;;31.55;7.20;;;16.30;99.90;;;;;;5044465;28;20049;-70
2023/05/25 11:24:44;;;;;;;37.83;7.43;;;16.40;99.90;;;;;;5043420;28;20033;-68
2023/05/25 11:27:10;;;;;;;34.25;7.20;;;16.20;99.90;;;;;;5044716;28;20467;-69
2023/05/25 11:29:37;;;;;;;30.85;7.35;;;15.90;99.90;;;;;;5049847;28;20056;-70
2023/05/25 11:32:03;;;;;;;35.60;7.13;;;16.00;99.90;;;;;;5051886;28;20036;-68
2023/05/25 11:34:30;;;;;;;33.72;6.82;;;16.20;99.90;;;;;;5046475;28;20029;-70
2023/05/25 11:37:01;;;;;;;35.47;7.60;;;16.30;99.90;;;;;;5055159;28;20036;-69
2023/05/25 11:39:27;;;;;;;34.60;7.22;;;16.30;99.90;;;;;;5051914;28;20026;-70
2023/05/25 11:41:55;;;;;;;41.45;8.23;;;16.50;99.90;;;;;;5042542;28;20052;-68
2023/05/25 11:44:27;;;;;;;34.00;7.20;;;16.70;99.90;;;;;;5046161;28;20467;-70
2023/05/25 11:46:56;;;;;;;30.83;7.20;;;16.80;99.90;;;;;;5046153;28;20030;-70
2023/05/25 11:49:23;;;;;;;35.17;7.18;;;16.80;99.90;;;;;;5048296;28;20038;-71
2023/05/25 11:51:49;;;;;;;36.30;7.18;;;16.90;99.90;;;;;;5043877;28;20441;-69
2023/05/25 11:54:41;;;;;;;31.95;7.28;;;17.20;99.90;;;;;;5059832;28;20036;-69
2023/05/25 11:57:16;;;;;;;30.17;6.93;;;17.20;99.90;;;;;;5042043;28;20041;-70
2023/05/25 11:59:52;;;;;;;33.38;7.25;;;17.20;99.90;;;;;;5043692;28;20037;-69
2023/05/25 12:02:18;;;;;;;28.27;6.95;;;17.20;99.90;;;;;;5059503;28;20029;-71
2023/05/25 12:04:54;;;;;;;38.58;7.43;;;17.30;99.90;;;;;;5063847;28;20033;-70
2023/05/25 12:07:20;;;;;;;40.35;7.22;;;17.60;99.90;;;;;;5064160;28;20025;-70
2023/05/25 12:09:45;;;;;;;35.90;7.45;;;17.70;99.90;;;;;;5062689;28;20518;-72
2023/05/25 12:12:11;;;;;;;31.85;6.45;;;17.80;99.90;;;;;;5056764;28;20025;-70
2023/05/25 12:14:46;;;;;;;31.85;7.32;;;17.90;99.90;;;;;;5044197;28;20211;-70
2023/05/25 12:17:12;;;;;;;34.65;6.97;;;17.80;99.90;;;;;;5043801;28;20057;-70
2023/05/25 12:19:38;;;;;;;35.90;7.70;;;17.80;99.90;;;;;;5043091;28;20044;-69
2023/05/25 12:22:04;;;;;;;33.67;6.80;;;17.90;99.90;;;;;;5045181;28;20021;-70
2023/05/25 12:24:29;;;;;;;28.13;6.90;;;17.90;99.90;;;;;;5063097;28;20036;-70
2023/05/25 12:27:00;;;;;;;28.48;6.70;;;17.90;99.90;;;;;;5062776;28;20021;-70
2023/05/25 12:29:26;;;;;;;32.40;7.13;;;18.00;99.90;;;;;;5063752;28;20029;-70
2023/05/25 12:31:52;;;;;;;38.35;7.65;;;17.90;99.90;;;;;;5058545;28;20049;-69
2023/05/25 12:34:18;;;;;;;30.60;6.65;;;18.00;99.90;;;;;;5057620;28;20021;-69
2023/05/25 12:36:50;;;;;;;38.75;7.15;;;18.10;99.90;;;;;;5063463;28;20065;-69